sensor_id;sensor_type;location;lat;lon;timestamp;pressure;altitude;pressure_sealevel;temperature;humidity
3780;BME280;1905;52.482;9.802;2023-12-22T00:02:25;98769.50;;;5.69;95.35
3780;BME280;1905;52.482;9.802;2023-12-22T00:04:56;98771.25;;;5.68;96.03
3780;BME280;1905;52.482;9.802;2023-12-22T00:07:24;98776.50;;;5.68;95.86
3780;BME280;1905;52.482;9.802;2023-12-22T00:09:52;98778.47;;;5.65;95.69
3780;BME280;1905;52.482;9.802;2023-12-22T00:12:19;98781.66;;;5.70;96.78
3780;BME280;1905;52.482;9.802;2023-12-22T00:14:47;98777.44;;;5.67;95.55
3780;BME280;1905;52.482;9.802;2023-12-22T00:17:15;98782.00;;;5.64;94.93
3780;BME280;1905;52.482;9.802;2023-12-22T00:19:42;98779.97;;;5.69;96.63
3780;BME280;1905;52.482;9.802;2023-12-22T00:22:11;98779.63;;;5.59;95.05
3780;BME280;1905;52.482;9.802;2023-12-22T00:24:40;98785.38;;;5.66;96.03
3780;BME280;1905;52.482;9.802;2023-12-22T00:27:07;98783.69;;;5.65;96.05
3780;BME280;1905;52.482;9.802;2023-12-22T00:29:35;98782.69;;;5.67;96.36
3780;BME280;1905;52.482;9.802;2023-12-22T00:32:04;98785.53;;;5.63;95.67
3780;BME280;1905;52.482;9.802;2023-12-22T00:34:33;98792.63;;;5.61;95.07
3780;BME280;1905;52.482;9.802;2023-12-22T00:37:01;98796.00;;;5.63;95.84
3780;BME280;1905;52.482;9.802;2023-12-22T00:39:30;98805.88;;;5.58;95.80
3780;BME280;1905;52.482;9.802;2023-12-22T00:41:58;98789.41;;;5.56;96.00
3780;BME280;1905;52.482;9.802;2023-12-22T00:44:27;98770.16;;;5.57;95.99
3780;BME280;1905;52.482;9.802;2023-12-22T00:46:58;98791.28;;;5.54;95.74
3780;BME280;1905;52.482;9.802;2023-12-22T00:49:26;98794.13;;;5.49;95.68
3780;BME280;1905;52.482;9.802;2023-12-22T00:51:53;98800.38;;;5.47;95.42
3780;BME280;1905;52.482;9.802;2023-12-22T00:54:21;98807.16;;;5.51;96.09
3780;BME280;1905;52.482;9.802;2023-12-22T00:56:50;98812.53;;;5.48;95.97
3780;BME280;1905;52.482;9.802;2023-12-22T00:59:18;98828.25;;;5.48;96.05
3780;BME280;1905;52.482;9.802;2023-12-22T01:01:45;98843.78;;;5.51;96.10
3780;BME280;1905;52.482;9.802;2023-12-22T01:04:13;98833.31;;;5.51;96.08
3780;BME280;1905;52.482;9.802;2023-12-22T01:06:41;98840.25;;;5.52;96.22
3780;BME280;1905;52.482;9.802;2023-12-22T01:09:10;98837.72;;;5.50;96.15
3780;BME280;1905;52.482;9.802;2023-12-22T01:11:38;98852.41;;;5.53;96.62
3780;BME280;1905;52.482;9.802;2023-12-22T01:14:07;98843.78;;;5.51;96.20
3780;BME280;1905;52.482;9.802;2023-12-22T01:16:35;98840.47;;;5.47;95.88
3780;BME280;1905;52.482;9.802;2023-12-22T01:19:02;98862.03;;;5.52;96.51
3780;BME280;1905;52.482;9.802;2023-12-22T01:21:30;98855.97;;;5.52;96.29
3780;BME280;1905;52.482;9.802;2023-12-22T01:23:58;98865.66;;;5.50;96.48
3780;BME280;1905;52.482;9.802;2023-12-22T01:26:26;98855.28;;;5.48;96.49
3780;BME280;1905;52.482;9.802;2023-12-22T01:28:54;98864.13;;;5.46;96.04
3780;BME280;1905;52.482;9.802;2023-12-22T01:31:23;98845.72;;;5.47;96.72
3780;BME280;1905;52.482;9.802;2023-12-22T01:33:50;98854.41;;;5.48;96.67
3780;BME280;1905;52.482;9.802;2023-12-22T01:36:18;98860.56;;;5.47;97.25
3780;BME280;1905;52.482;9.802;2023-12-22T01:38:46;98866.59;;;5.49;96.67
3780;BME280;1905;52.482;9.802;2023-12-22T01:41:14;98866.75;;;5.46;96.89
3780;BME280;1905;52.482;9.802;2023-12-22T01:43:42;98871.97;;;5.46;96.46
3780;BME280;1905;52.482;9.802;2023-12-22T01:46:11;98871.03;;;5.47;97.01
3780;BME280;1905;52.482;9.802;2023-12-22T01:48:41;98861.50;;;5.46;97.03
3780;BME280;1905;52.482;9.802;2023-12-22T01:51:09;98868.41;;;5.47;97.22
3780;BME280;1905;52.482;9.802;2023-12-22T01:53:37;98874.59;;;5.46;97.03
3780;BME280;1905;52.482;9.802;2023-12-22T01:56:06;98868.41;;;5.47;97.37
3780;BME280;1905;52.482;9.802;2023-12-22T01:58:36;98880.75;;;5.45;96.98
3780;BME280;1905;52.482;9.802;2023-12-22T02:01:16;98872.16;;;5.43;97.17
3780;BME280;1905;52.482;9.802;2023-12-22T02:03:45;98893.09;;;5.43;97.47
3780;BME280;1905;52.482;9.802;2023-12-22T02:06:13;98869.44;;;5.44;97.19
3780;BME280;1905;52.482;9.802;2023-12-22T02:08:41;98882.63;;;5.43;97.33
3780;BME280;1905;52.482;9.802;2023-12-22T02:11:09;98876.38;;;5.45;97.57
3780;BME280;1905;52.482;9.802;2023-12-22T02:13:37;98875.53;;;5.45;97.91
3780;BME280;1905;52.482;9.802;2023-12-22T02:16:10;98879.06;;;5.43;97.62
3780;BME280;1905;52.482;9.802;2023-12-22T02:18:41;98877.38;;;5.43;97.29
3780;BME280;1905;52.482;9.802;2023-12-22T02:21:12;98872.28;;;5.39;97.22
3780;BME280;1905;52.482;9.802;2023-12-22T02:23:41;98870.44;;;5.41;97.55
3780;BME280;1905;52.482;9.802;2023-12-22T02:26:12;98877.53;;;5.39;97.45
3780;BME280;1905;52.482;9.802;2023-12-22T02:28:44;98868.78;;;5.40;97.33
3780;BME280;1905;52.482;9.802;2023-12-22T02:31:17;98859.31;;;5.38;97.80
3780;BME280;1905;52.482;9.802;2023-12-22T02:33:48;98865.50;;;5.35;97.45
3780;BME280;1905;52.482;9.802;2023-12-22T02:36:22;98864.00;;;5.31;97.66
3780;BME280;1905;52.482;9.802;2023-12-22T02:38:53;98869.22;;;5.31;98.10
3780;BME280;1905;52.482;9.802;2023-12-22T02:41:22;98883.31;;;5.29;98.09
3780;BME280;1905;52.482;9.802;2023-12-22T02:43:50;98881.72;;;5.26;98.16
3780;BME280;1905;52.482;9.802;2023-12-22T02:46:18;98896.47;;;5.27;97.92
3780;BME280;1905;52.482;9.802;2023-12-22T02:48:46;98907.88;;;5.26;98.24
3780;BME280;1905;52.482;9.802;2023-12-22T02:51:14;98909.72;;;5.24;98.21
3780;BME280;1905;52.482;9.802;2023-12-22T02:53:41;98882.00;;;5.20;98.13
3780;BME280;1905;52.482;9.802;2023-12-22T02:56:10;98891.56;;;5.21;98.02
3780;BME280;1905;52.482;9.802;2023-12-22T02:58:38;98893.50;;;5.18;98.20
3780;BME280;1905;52.482;9.802;2023-12-22T03:01:06;98878.50;;;5.21;98.51
3780;BME280;1905;52.482;9.802;2023-12-22T03:03:33;98864.56;;;5.21;98.56
3780;BME280;1905;52.482;9.802;2023-12-22T03:06:01;98868.03;;;5.21;98.62
3780;BME280;1905;52.482;9.802;2023-12-22T03:08:29;98866.31;;;5.20;98.58
3780;BME280;1905;52.482;9.802;2023-12-22T03:10:57;98874.94;;;5.22;98.65
3780;BME280;1905;52.482;9.802;2023-12-22T03:13:26;98870.63;;;5.21;98.78
3780;BME280;1905;52.482;9.802;2023-12-22T03:15:54;98879.41;;;5.20;98.85
3780;BME280;1905;52.482;9.802;2023-12-22T03:18:21;98888.81;;;5.24;98.17
3780;BME280;1905;52.482;9.802;2023-12-22T03:20:49;98889.72;;;5.23;98.33
3780;BME280;1905;52.482;9.802;2023-12-22T03:23:17;98883.13;;;5.16;98.06
3780;BME280;1905;52.482;9.802;2023-12-22T03:25:44;98894.50;;;5.15;98.09
3780;BME280;1905;52.482;9.802;2023-12-22T03:28:12;98875.41;;;5.13;98.22
3780;BME280;1905;52.482;9.802;2023-12-22T03:30:41;98882.41;;;5.13;98.26
3780;BME280;1905;52.482;9.802;2023-12-22T03:33:09;98870.25;;;5.12;98.13
3780;BME280;1905;52.482;9.802;2023-12-22T03:35:37;98864.25;;;5.10;98.39
3780;BME280;1905;52.482;9.802;2023-12-22T03:38:04;98858.16;;;5.09;98.57
3780;BME280;1905;52.482;9.802;2023-12-22T03:40:32;98862.50;;;5.10;98.63
3780;BME280;1905;52.482;9.802;2023-12-22T03:43:00;98854.78;;;5.07;98.18
3780;BME280;1905;52.482;9.802;2023-12-22T03:45:27;98854.53;;;5.12;98.24
3780;BME280;1905;52.482;9.802;2023-12-22T03:47:56;98851.94;;;5.12;98.01
3780;BME280;1905;52.482;9.802;2023-12-22T03:50:24;98872.94;;;5.10;98.19
3780;BME280;1905;52.482;9.802;2023-12-22T03:52:51;98858.47;;;5.03;97.61
3780;BME280;1905;52.482;9.802;2023-12-22T03:55:19;98851.41;;;5.05;97.98
3780;BME280;1905;52.482;9.802;2023-12-22T03:57:47;98849.72;;;5.04;98.35
3780;BME280;1905;52.482;9.802;2023-12-22T04:00:15;98846.50;;;4.99;97.74
3780;BME280;1905;52.482;9.802;2023-12-22T04:02:43;98848.16;;;5.00;98.35
3780;BME280;1905;52.482;9.802;2023-12-22T04:05:12;98846.63;;;4.96;98.11
3780;BME280;1905;52.482;9.802;2023-12-22T04:07:40;98843.94;;;4.98;97.74
3780;BME280;1905;52.482;9.802;2023-12-22T04:10:08;98850.00;;;4.98;97.89
3780;BME280;1905;52.482;9.802;2023-12-22T04:12:36;98849.50;;;4.92;97.76
3780;BME280;1905;52.482;9.802;2023-12-22T04:15:05;98841.72;;;4.90;98.36
3780;BME280;1905;52.482;9.802;2023-12-22T04:17:33;98836.63;;;4.87;97.87
3780;BME280;1905;52.482;9.802;2023-12-22T04:20:00;98841.88;;;4.87;98.22
3780;BME280;1905;52.482;9.802;2023-12-22T04:22:29;98841.00;;;4.87;97.49
3780;BME280;1905;52.482;9.802;2023-12-22T04:24:57;98858.34;;;4.89;98.39
3780;BME280;1905;52.482;9.802;2023-12-22T04:27:24;98856.56;;;4.90;98.22
3780;BME280;1905;52.482;9.802;2023-12-22T04:29:52;98888.78;;;4.90;99.01
3780;BME280;1905;52.482;9.802;2023-12-22T04:32:19;98889.53;;;4.92;98.32
3780;BME280;1905;52.482;9.802;2023-12-22T04:34:47;98893.16;;;4.90;98.43
3780;BME280;1905;52.482;9.802;2023-12-22T04:37:15;98908.94;;;4.88;98.74
3780;BME280;1905;52.482;9.802;2023-12-22T04:39:44;98908.94;;;4.88;98.47
3780;BME280;1905;52.482;9.802;2023-12-22T04:42:11;98902.00;;;4.87;98.58
3780;BME280;1905;52.482;9.802;2023-12-22T04:44:39;98895.00;;;4.88;98.76
3780;BME280;1905;52.482;9.802;2023-12-22T04:47:06;98897.63;;;4.88;98.58
3780;BME280;1905;52.482;9.802;2023-12-22T04:49:34;98886.41;;;4.86;98.43
3780;BME280;1905;52.482;9.802;2023-12-22T04:52:02;98889.06;;;4.84;98.94
3780;BME280;1905;52.482;9.802;2023-12-22T04:54:30;98898.41;;;4.90;98.91
3780;BME280;1905;52.482;9.802;2023-12-22T04:56:59;98879.31;;;4.88;98.17
3780;BME280;1905;52.482;9.802;2023-12-22T04:59:27;98873.25;;;4.87;98.21
3780;BME280;1905;52.482;9.802;2023-12-22T05:01:54;98870.56;;;4.89;98.45
3780;BME280;1905;52.482;9.802;2023-12-22T05:04:22;98851.47;;;4.87;98.70
3780;BME280;1905;52.482;9.802;2023-12-22T05:06:50;98845.31;;;4.88;98.23
3780;BME280;1905;52.482;9.802;2023-12-22T05:09:18;98854.25;;;4.84;98.57
3780;BME280;1905;52.482;9.802;2023-12-22T05:11:45;98855.19;;;4.82;98.92
3780;BME280;1905;52.482;9.802;2023-12-22T05:14:14;98869.09;;;4.83;98.50
3780;BME280;1905;52.482;9.802;2023-12-22T05:16:42;98855.09;;;4.84;98.06
3780;BME280;1905;52.482;9.802;2023-12-22T05:19:10;98868.31;;;4.81;98.84
3780;BME280;1905;52.482;9.802;2023-12-22T05:21:37;98864.09;;;4.78;99.11
3780;BME280;1905;52.482;9.802;2023-12-22T05:24:05;98868.31;;;4.81;98.92
3780;BME280;1905;52.482;9.802;2023-12-22T05:26:32;98875.09;;;4.85;98.86
3780;BME280;1905;52.482;9.802;2023-12-22T05:29:01;98875.25;;;4.82;98.67
3780;BME280;1905;52.482;9.802;2023-12-22T05:31:30;98865.63;;;4.82;99.02
3780;BME280;1905;52.482;9.802;2023-12-22T05:33:59;98863.94;;;4.81;98.19
3780;BME280;1905;52.482;9.802;2023-12-22T05:36:26;98886.47;;;4.84;98.02
3780;BME280;1905;52.482;9.802;2023-12-22T05:38:54;98877.81;;;4.84;98.73
3780;BME280;1905;52.482;9.802;2023-12-22T05:41:22;98881.19;;;4.86;98.33
3780;BME280;1905;52.482;9.802;2023-12-22T05:43:49;98869.00;;;4.85;98.29
3780;BME280;1905;52.482;9.802;2023-12-22T05:46:17;98870.00;;;4.82;98.58
3780;BME280;1905;52.482;9.802;2023-12-22T05:48:46;98883.03;;;4.84;98.76
3780;BME280;1905;52.482;9.802;2023-12-22T05:51:14;98895.31;;;4.81;99.10
3780;BME280;1905;52.482;9.802;2023-12-22T05:53:41;98907.53;;;4.81;98.77
3780;BME280;1905;52.482;9.802;2023-12-22T05:56:18;98881.22;;;4.84;98.99
3780;BME280;1905;52.482;9.802;2023-12-22T05:58:47;98897.88;;;4.83;98.46
3780;BME280;1905;52.482;9.802;2023-12-22T06:01:15;98886.56;;;4.82;98.48
3780;BME280;1905;52.482;9.802;2023-12-22T06:03:46;98894.31;;;4.84;98.22
3780;BME280;1905;52.482;9.802;2023-12-22T06:06:15;98900.63;;;4.80;98.47
3780;BME280;1905;52.482;9.802;2023-12-22T06:08:42;98897.88;;;4.83;98.51
3780;BME280;1905;52.482;9.802;2023-12-22T06:11:10;98901.38;;;4.82;98.80
3780;BME280;1905;52.482;9.802;2023-12-22T06:13:39;98926.47;;;4.86;98.18
3780;BME280;1905;52.482;9.802;2023-12-22T06:16:11;98941.22;;;4.87;98.36
3780;BME280;1905;52.482;9.802;2023-12-22T06:18:39;98953.53;;;4.85;98.65
3780;BME280;1905;52.482;9.802;2023-12-22T06:21:09;98966.00;;;4.80;99.39
3780;BME280;1905;52.482;9.802;2023-12-22T06:23:37;98990.16;;;4.85;99.34
3780;BME280;1905;52.482;9.802;2023-12-22T06:26:08;98968.31;;;4.86;98.85
3780;BME280;1905;52.482;9.802;2023-12-22T06:28:36;98981.41;;;4.86;99.43
3780;BME280;1905;52.482;9.802;2023-12-22T06:31:04;98954.44;;;4.84;98.82
3780;BME280;1905;52.482;9.802;2023-12-22T06:33:32;98967.53;;;4.84;99.33
3780;BME280;1905;52.482;9.802;2023-12-22T06:36:00;98966.84;;;4.80;98.71
3780;BME280;1905;52.482;9.802;2023-12-22T06:38:30;98964.16;;;4.82;97.91
3780;BME280;1905;52.482;9.802;2023-12-22T06:40:58;98987.44;;;4.87;98.19
3780;BME280;1905;52.482;9.802;2023-12-22T06:43:26;99001.38;;;4.87;98.18
3780;BME280;1905;52.482;9.802;2023-12-22T06:45:54;98992.84;;;4.84;97.85
3780;BME280;1905;52.482;9.802;2023-12-22T06:48:21;99010.16;;;4.86;97.41
3780;BME280;1905;52.482;9.802;2023-12-22T06:50:49;99003.31;;;4.84;97.06
3780;BME280;1905;52.482;9.802;2023-12-22T06:53:17;99021.69;;;4.82;97.73
3780;BME280;1905;52.482;9.802;2023-12-22T06:55:53;99012.06;;;4.82;96.91
3780;BME280;1905;52.482;9.802;2023-12-22T06:58:20;99029.38;;;4.85;97.14
3780;BME280;1905;52.482;9.802;2023-12-22T07:00:51;99025.91;;;4.85;97.20
3780;BME280;1905;52.482;9.802;2023-12-22T07:03:19;99030.38;;;4.82;96.91
3780;BME280;1905;52.482;9.802;2023-12-22T07:05:47;99032.84;;;4.86;96.93
3780;BME280;1905;52.482;9.802;2023-12-22T07:08:15;99046.91;;;4.83;96.37
3780;BME280;1905;52.482;9.802;2023-12-22T07:10:43;99042.53;;;4.84;96.72
3780;BME280;1905;52.482;9.802;2023-12-22T07:13:14;99056.44;;;4.84;98.04
3780;BME280;1905;52.482;9.802;2023-12-22T07:15:42;99043.50;;;4.81;98.08
3780;BME280;1905;52.482;9.802;2023-12-22T07:18:10;99063.38;;;4.85;98.18
3780;BME280;1905;52.482;9.802;2023-12-22T07:20:38;99067.88;;;4.81;98.36
3780;BME280;1905;52.482;9.802;2023-12-22T07:23:05;99078.34;;;4.81;98.23
3780;BME280;1905;52.482;9.802;2023-12-22T07:25:36;99074.81;;;4.82;98.31
3780;BME280;1905;52.482;9.802;2023-12-22T07:28:05;99064.50;;;4.79;98.38
3780;BME280;1905;52.482;9.802;2023-12-22T07:30:34;99067.97;;;4.80;98.54
3780;BME280;1905;52.482;9.802;2023-12-22T07:33:03;99081.81;;;4.82;98.94
3780;BME280;1905;52.482;9.802;2023-12-22T07:35:30;99075.97;;;4.77;99.27
3780;BME280;1905;52.482;9.802;2023-12-22T07:37:58;99089.66;;;4.82;98.72
3780;BME280;1905;52.482;9.802;2023-12-22T07:40:26;99091.66;;;4.77;98.14
3780;BME280;1905;52.482;9.802;2023-12-22T07:42:54;99080.41;;;4.75;98.76
3780;BME280;1905;52.482;9.802;2023-12-22T07:45:21;99082.22;;;4.73;98.20
3780;BME280;1905;52.482;9.802;2023-12-22T07:47:51;99085.00;;;4.70;98.28
3780;BME280;1905;52.482;9.802;2023-12-22T07:50:20;99135.72;;;4.66;98.05
3780;BME280;1905;52.482;9.802;2023-12-22T07:52:48;99097.28;;;4.68;98.46
3780;BME280;1905;52.482;9.802;2023-12-22T07:55:16;99126.97;;;4.67;98.04
3780;BME280;1905;52.482;9.802;2023-12-22T07:57:45;99128.78;;;4.65;98.28
3780;BME280;1905;52.482;9.802;2023-12-22T08:00:13;99136.72;;;4.63;98.22
3780;BME280;1905;52.482;9.802;2023-12-22T08:02:41;99115.81;;;4.63;98.18
3780;BME280;1905;52.482;9.802;2023-12-22T08:05:10;99124.50;;;4.64;98.82
3780;BME280;1905;52.482;9.802;2023-12-22T08:07:38;99098.53;;;4.59;97.93
3780;BME280;1905;52.482;9.802;2023-12-22T08:10:06;99112.59;;;4.57;98.29
3780;BME280;1905;52.482;9.802;2023-12-22T08:12:34;99102.94;;;4.59;98.69
3780;BME280;1905;52.482;9.802;2023-12-22T08:15:02;99084.91;;;4.53;98.84
3780;BME280;1905;52.482;9.802;2023-12-22T08:17:30;99089.25;;;4.54;98.96
3780;BME280;1905;52.482;9.802;2023-12-22T08:19:58;99089.38;;;4.51;99.23
3780;BME280;1905;52.482;9.802;2023-12-22T08:22:38;99102.50;;;4.49;98.78
3780;BME280;1905;52.482;9.802;2023-12-22T08:25:11;99103.34;;;4.50;99.34
3780;BME280;1905;52.482;9.802;2023-12-22T08:27:39;99116.41;;;4.50;99.18
3780;BME280;1905;52.482;9.802;2023-12-22T08:30:09;99112.09;;;4.49;100.00
3780;BME280;1905;52.482;9.802;2023-12-22T08:32:37;99117.31;;;4.49;99.66
3780;BME280;1905;52.482;9.802;2023-12-22T08:35:06;99124.25;;;4.50;99.16
3780;BME280;1905;52.482;9.802;2023-12-22T08:37:34;99124.25;;;4.50;100.00
3780;BME280;1905;52.482;9.802;2023-12-22T08:40:05;99134.56;;;4.53;100.00
3780;BME280;1905;52.482;9.802;2023-12-22T08:42:33;99132.75;;;4.55;99.60
3780;BME280;1905;52.482;9.802;2023-12-22T08:45:01;99146.66;;;4.55;100.00
3780;BME280;1905;52.482;9.802;2023-12-22T08:47:29;99148.28;;;4.58;99.56
3780;BME280;1905;52.482;9.802;2023-12-22T08:49:56;99156.78;;;4.63;99.80
3780;BME280;1905;52.482;9.802;2023-12-22T08:52:24;99173.31;;;4.63;100.00
3780;BME280;1905;52.482;9.802;2023-12-22T08:54:52;99158.41;;;4.65;99.65
3780;BME280;1905;52.482;9.802;2023-12-22T08:57:21;99156.50;;;4.69;100.00
3780;BME280;1905;52.482;9.802;2023-12-22T08:59:49;99159.97;;;4.69;100.00
3780;BME280;1905;52.482;9.802;2023-12-22T09:02:17;99158.06;;;4.73;100.00
3780;BME280;1905;52.482;9.802;2023-12-22T09:04:44;99145.66;;;4.78;100.00
3780;BME280;1905;52.482;9.802;2023-12-22T09:07:12;99141.19;;;4.80;99.93
3780;BME280;1905;52.482;9.802;2023-12-22T09:09:39;99134.19;;;4.80;99.91
3780;BME280;1905;52.482;9.802;2023-12-22T09:12:07;99126.13;;;4.85;100.00
3780;BME280;1905;52.482;9.802;2023-12-22T09:14:36;99151.28;;;4.88;100.00
3780;BME280;1905;52.482;9.802;2023-12-22T09:17:04;99145.22;;;4.87;100.00
3780;BME280;1905;52.482;9.802;2023-12-22T09:19:32;99151.88;;;4.94;99.98
3780;BME280;1905;52.482;9.802;2023-12-22T09:22:00;99164.03;;;4.95;99.90
3780;BME280;1905;52.482;9.802;2023-12-22T09:24:28;99156.81;;;5.00;100.00
3780;BME280;1905;52.482;9.802;2023-12-22T09:26:55;99145.53;;;5.00;99.65
3780;BME280;1905;52.482;9.802;2023-12-22T09:29:29;99135.59;;;5.06;99.84
3780;BME280;1905;52.482;9.802;2023-12-22T09:31:59;99142.56;;;5.07;99.80
3780;BME280;1905;52.482;9.802;2023-12-22T09:34:27;99137.19;;;5.10;99.32
3780;BME280;1905;52.482;9.802;2023-12-22T09:36:56;99110.78;;;5.15;99.18
3780;BME280;1905;52.482;9.802;2023-12-22T09:39:25;99122.88;;;5.17;99.59
3780;BME280;1905;52.482;9.802;2023-12-22T09:41:55;99103.50;;;5.21;99.34
3780;BME280;1905;52.482;9.802;2023-12-22T09:44:24;99110.13;;;5.28;98.57
3780;BME280;1905;52.482;9.802;2023-12-22T09:46:52;99097.81;;;5.30;98.34
3780;BME280;1905;52.482;9.802;2023-12-22T09:49:22;99105.63;;;5.32;98.02
3780;BME280;1905;52.482;9.802;2023-12-22T09:51:50;99103.53;;;5.38;98.12
3780;BME280;1905;52.482;9.802;2023-12-22T09:54:18;99137.66;;;5.37;98.05
3780;BME280;1905;52.482;9.802;2023-12-22T09:56:47;99127.09;;;5.38;97.83
3780;BME280;1905;52.482;9.802;2023-12-22T09:59:17;99126.81;;;5.45;97.57
3780;BME280;1905;52.482;9.802;2023-12-22T10:01:45;99122.47;;;5.43;97.57
3780;BME280;1905;52.482;9.802;2023-12-22T10:04:15;99138.97;;;5.46;96.80
3780;BME280;1905;52.482;9.802;2023-12-22T10:06:46;99139.75;;;5.48;96.90
3780;BME280;1905;52.482;9.802;2023-12-22T10:09:15;99151.84;;;5.50;97.21
3780;BME280;1905;52.482;9.802;2023-12-22T10:11:44;99149.31;;;5.49;96.88
3780;BME280;1905;52.482;9.802;2023-12-22T10:14:11;99162.47;;;5.47;96.59
3780;BME280;1905;52.482;9.802;2023-12-22T10:16:47;99154.53;;;5.49;96.82
3780;BME280;1905;52.482;9.802;2023-12-22T10:19:15;99162.47;;;5.47;97.23
3780;BME280;1905;52.482;9.802;2023-12-22T10:21:44;99149.00;;;5.55;96.63
3780;BME280;1905;52.482;9.802;2023-12-22T10:27:09;99154.31;;;5.53;97.82
3780;BME280;1905;52.482;9.802;2023-12-22T10:29:37;99149.16;;;5.52;98.05
3780;BME280;1905;52.482;9.802;2023-12-22T10:32:06;99143.84;;;5.53;98.24
3780;BME280;1905;52.482;9.802;2023-12-22T10:34:34;99152.56;;;5.54;98.46
3780;BME280;1905;52.482;9.802;2023-12-22T10:37:04;99152.56;;;5.54;98.32
3780;BME280;1905;52.482;9.802;2023-12-22T10:39:32;99153.22;;;5.57;98.30
3780;BME280;1905;52.482;9.802;2023-12-22T10:42:00;99139.22;;;5.58;98.45
3780;BME280;1905;52.482;9.802;2023-12-22T10:44:28;99140.22;;;5.56;98.20
3780;BME280;1905;52.482;9.802;2023-12-22T10:46:57;99140.22;;;5.56;98.39
3780;BME280;1905;52.482;9.802;2023-12-22T10:49:25;99138.38;;;5.58;98.44
3780;BME280;1905;52.482;9.802;2023-12-22T10:51:53;99138.53;;;5.55;98.62
3780;BME280;1905;52.482;9.802;2023-12-22T10:54:22;99144.47;;;5.58;98.33
3780;BME280;1905;52.482;9.802;2023-12-22T10:56:49;99151.56;;;5.56;99.03
3780;BME280;1905;52.482;9.802;2023-12-22T10:59:18;99154.03;;;5.59;98.57
3780;BME280;1905;52.482;9.802;2023-12-22T11:01:48;99125.38;;;5.56;98.76
3780;BME280;1905;52.482;9.802;2023-12-22T11:04:17;99124.53;;;5.56;98.93
3780;BME280;1905;52.482;9.802;2023-12-22T11:06:51;99121.00;;;5.57;99.30
3780;BME280;1905;52.482;9.802;2023-12-22T11:09:23;99124.66;;;5.53;98.77
3780;BME280;1905;52.482;9.802;2023-12-22T11:11:52;99126.28;;;5.55;99.49
3780;BME280;1905;52.482;9.802;2023-12-22T11:14:21;99117.56;;;5.55;98.96
3780;BME280;1905;52.482;9.802;2023-12-22T11:16:51;99100.19;;;5.54;99.47
3780;BME280;1905;52.482;9.802;2023-12-22T11:19:22;99099.91;;;5.60;99.39
3780;BME280;1905;52.482;9.802;2023-12-22T11:21:51;99099.09;;;5.58;99.19
3780;BME280;1905;52.482;9.802;2023-12-22T11:24:21;99098.09;;;5.60;99.27
3780;BME280;1905;52.482;9.802;2023-12-22T11:26:51;99116.53;;;5.59;99.35
3780;BME280;1905;52.482;9.802;2023-12-22T11:29:23;99110.19;;;5.63;99.30
3780;BME280;1905;52.482;9.802;2023-12-22T11:31:54;99118.28;;;5.58;99.26
3780;BME280;1905;52.482;9.802;2023-12-22T11:34:23;99112.06;;;5.61;99.48
3780;BME280;1905;52.482;9.802;2023-12-22T11:36:53;99108.22;;;5.68;99.16
3780;BME280;1905;52.482;9.802;2023-12-22T11:39:23;99089.03;;;5.67;98.91
3780;BME280;1905;52.482;9.802;2023-12-22T11:41:52;99088.09;;;5.68;99.71
3780;BME280;1905;52.482;9.802;2023-12-22T11:44:22;99096.97;;;5.66;99.83
3780;BME280;1905;52.482;9.802;2023-12-22T11:47:02;99105.44;;;5.71;99.53
3780;BME280;1905;52.482;9.802;2023-12-22T11:49:33;99087.09;;;5.71;99.49
3780;BME280;1905;52.482;9.802;2023-12-22T11:52:15;99108.03;;;5.71;99.68
3780;BME280;1905;52.482;9.802;2023-12-22T11:54:45;99106.06;;;5.76;99.77
3780;BME280;1905;52.482;9.802;2023-12-22T11:57:30;99118.22;;;5.77;99.99
3780;BME280;1905;52.482;9.802;2023-12-22T11:59:59;99097.44;;;5.74;99.61
3780;BME280;1905;52.482;9.802;2023-12-22T12:02:39;99091.88;;;5.80;99.62
3780;BME280;1905;52.482;9.802;2023-12-22T12:05:08;99107.59;;;5.80;99.50
3780;BME280;1905;52.482;9.802;2023-12-22T12:07:38;99098.03;;;5.79;99.35
3780;BME280;1905;52.482;9.802;2023-12-22T12:10:07;99092.59;;;5.83;99.67
3780;BME280;1905;52.482;9.802;2023-12-22T12:12:35;99088.91;;;5.87;99.10
3780;BME280;1905;52.482;9.802;2023-12-22T12:15:09;99094.09;;;5.89;98.88
3780;BME280;1905;52.482;9.802;2023-12-22T12:17:41;99087.25;;;5.86;99.20
3780;BME280;1905;52.482;9.802;2023-12-22T12:20:10;99090.53;;;5.90;99.31
3780;BME280;1905;52.482;9.802;2023-12-22T12:22:39;99082.00;;;5.86;99.52
3780;BME280;1905;52.482;9.802;2023-12-22T12:25:09;99094.84;;;5.91;99.40
3780;BME280;1905;52.482;9.802;2023-12-22T12:28:00;99082.59;;;5.91;99.40
3780;BME280;1905;52.482;9.802;2023-12-22T12:30:32;99087.75;;;5.93;99.44
3780;BME280;1905;52.482;9.802;2023-12-22T12:33:06;99083.38;;;5.93;99.39
3780;BME280;1905;52.482;9.802;2023-12-22T12:35:35;99086.91;;;5.92;99.16
3780;BME280;1905;52.482;9.802;2023-12-22T12:38:08;99090.38;;;5.93;99.20
3780;BME280;1905;52.482;9.802;2023-12-22T12:40:39;99104.28;;;5.95;99.05
3780;BME280;1905;52.482;9.802;2023-12-22T12:43:08;99086.53;;;6.00;99.47
3780;BME280;1905;52.482;9.802;2023-12-22T12:45:36;99073.44;;;6.00;99.09
3780;BME280;1905;52.482;9.802;2023-12-22T12:48:04;99071.59;;;6.02;99.56
3780;BME280;1905;52.482;9.802;2023-12-22T12:50:34;99080.28;;;6.03;99.46
3780;BME280;1905;52.482;9.802;2023-12-22T12:53:05;99076.81;;;6.02;99.16
3780;BME280;1905;52.482;9.802;2023-12-22T12:55:33;99079.34;;;6.04;99.26
3780;BME280;1905;52.482;9.802;2023-12-22T12:58:03;99078.34;;;6.06;99.68
3780;BME280;1905;52.482;9.802;2023-12-22T13:00:32;99070.41;;;6.08;99.50
3780;BME280;1905;52.482;9.802;2023-12-22T13:03:04;99076.22;;;6.14;99.51
3780;BME280;1905;52.482;9.802;2023-12-22T13:05:34;99084.97;;;6.13;99.44
3780;BME280;1905;52.482;9.802;2023-12-22T13:08:09;99081.44;;;6.14;99.65
3780;BME280;1905;52.482;9.802;2023-12-22T13:10:38;99084.75;;;6.18;99.30
3780;BME280;1905;52.482;9.802;2023-12-22T13:13:08;99078.63;;;6.17;99.46
3780;BME280;1905;52.482;9.802;2023-12-22T13:15:39;99081.97;;;6.21;99.40
3780;BME280;1905;52.482;9.802;2023-12-22T13:18:07;99065.53;;;6.17;99.20
3780;BME280;1905;52.482;9.802;2023-12-22T13:20:36;99072.34;;;6.21;99.51
3780;BME280;1905;52.482;9.802;2023-12-22T13:23:04;99068.78;;;6.22;99.10
3780;BME280;1905;52.482;9.802;2023-12-22T13:25:38;99078.09;;;6.28;99.34
3780;BME280;1905;52.482;9.802;2023-12-22T13:28:05;99085.88;;;6.29;98.55
3780;BME280;1905;52.482;9.802;2023-12-22T13:30:34;99069.31;;;6.29;98.82
3780;BME280;1905;52.482;9.802;2023-12-22T13:33:04;99068.28;;;6.31;98.75
3780;BME280;1905;52.482;9.802;2023-12-22T13:35:32;99073.53;;;6.31;99.23
3780;BME280;1905;52.482;9.802;2023-12-22T13:38:06;99078.78;;;6.31;99.51
3780;BME280;1905;52.482;9.802;2023-12-22T13:40:35;99074.28;;;6.33;99.08
3780;BME280;1905;52.482;9.802;2023-12-22T13:43:03;99068.28;;;6.31;99.19
3780;BME280;1905;52.482;9.802;2023-12-22T13:45:31;99072.63;;;6.32;98.89